Airfield :
LOGIN :

Register | Disclaimer

   EN    FR    IT 

 










Legend :    VFR   Marginal VFR   IFR   Intensive IFR   Very Intensive IFR
Visi :
Ceiling :
>= 8 km
>= 3000ft
5 to 8 km
1000 to 3000 ft
1500m to 5 km
500 to 1000 ft
800 to 1500m
200 to 500 ft
< 800m
< 200 ft
Symbols :   Thunderstorms  Fog  Heavy snow  Heavy precipitations  Wind > 20 kt
SIGMETs :     Misc.  Thunderstorms  Icing  Turbulence  Mountain Waves  Volcanic Ashes






- Airport Elevation : 257 ft
- IATA code : MAN


EGCC - Manchester

CURRENT METAR :
  • 231750Z AUTO VRB02KT 8000 NCD 10/08 Q1008

EXPIRED METARs :
  • 231720Z AUTO VRB01KT 9999 NCD 10/08 Q1008 NOSIG
  • 231650Z AUTO VRB03KT 9999 SCT018 11/08 Q1008
  • 231620Z AUTO 18004KT 100V240 9999 BKN019 12/09 Q1009 NOSIG
  • 231550Z 18006KT 090V220 9999 FEW018 12/08 Q1009 NOSIG
  • 231520Z 18006KT 120V240 9999 SCT016 SCT030 12/09 Q1009

TAF TAF EGCC
Valid from the 23 at 18:00 until the 25 at 00:00 UTC


231707Z 2318/2424 VRB03KT 9999 FEW030
PROB30
TEMPO 2318/2324 9000 BKN009
BECMG 2400/2403 8000
PROB30 2401/2406 4000 BR BKN002
BECMG 2404/2407 BKN014
TEMPO 2407/2412 4000 RA BKN009
BECMG 2412/2414 27012KT 9999 NSW FEW045
PROB30
TEMPO 2412/2417 7000 SHRA
TEMPO 2417/2424 7000 SHRA
ATIS : +44 161 499 2324



MET'MAP, your aeronautical weather chart ! - Copyright ORBIFLY December 2007 - Disclaimer

ORBIFLY MET'MAP TEAM :

Programming & Development : Alexandra Zaïnal
Concept & Development : Baudouin d'Aumeries
Co-Development & Prog : Marc-Olivier Méhu
Technical & hardware support : Manuel Goepfert

Contact : metmap@orbifly.com




SOURCES & CREDITS :

   NOAA